KILM/ILM METAR and TAF weather

Enter ICAO airport designator
Station Type Date Time Source
KILM METAR 2021/09/23 23:53 UTC NOAA

KILM 232353Z 00000KT 10SM CLR 22/19 A2993 RMK AO2 SLP134 T02170189 10267 20217 51019


Station Type Date Time Source
KILM Decoded METAR 2021/09/23 23:53 UTC NOAA

WILMINGTON INT'L AIRPORT, NC, United States (KILM) 34-16N 077-54W 9M
Sep 23, 2021 - 07:53 PM EDT / 2021.09.23 2353 UTC
Wind: Calm:0
Visibility: 10 mile(s):0
Sky conditions: clear
Temperature: 71.1 F (21.7 C)
Dew Point: 66.0 F (18.9 C)
Relative Humidity: 84%
Pressure (altimeter): 29.93 in. Hg (1013 hPa)
Pressure tendency: 0.06 inches (1.9 hPa) higher than three hours ago
ob: KILM 232353Z 00000KT 10SM CLR 22/19 A2993 RMK AO2 SLP134 T02170189 10267 20217 51019
cycle: 0

Station Type Date Time Source
KILM TAF 2021/09/23 18:22 UTC NOAA

TAF KILM 231720Z 2318/2418 33008KT P6SM FEW250
TEMPO 2318/2319 BKN025
FM232300 35005KT P6SM SKC
FM241300 36009KT P6SM SKC

Example: see airport list